Time;durP1;ratioP1;P1;durP2;ratioP2;P2;SDS_P1;SDS_P2;PMS_P1;PMS_P2;Temp;Humidity;BMP_temperature;BMP_pressure;BME280_temperature;BME280_humidity;BME280_pressure;Samples;Min_cycle;Max_cycle;Signal;HPM_P1;HPM_P2
2022/05/25 00:01:32;;;;;;;9.27;6.82;;;;;;;20.00;59.41;94507.63;4176009;28;20057;-56
2022/05/25 00:03:35;;;;;;;9.93;6.65;;;;;;;20.02;59.38;94505.53;4176815;28;20123;-55
2022/05/25 00:05:37;;;;;;;11.00;6.80;;;;;;;19.98;59.47;94499.03;4177100;28;20131;-54
2022/05/25 00:07:39;;;;;;;11.55;6.93;;;;;;;19.96;59.50;94501.94;4175505;28;20410;-56
2022/05/25 00:09:41;;;;;;;7.97;6.20;;;;;;;19.95;59.46;94502.97;4176520;28;20048;-56
2022/05/25 00:11:43;;;;;;;8.98;6.50;;;;;;;19.97;59.59;94508.06;4176431;28;20057;-56
2022/05/25 00:13:44;;;;;;;11.43;7.30;;;;;;;19.94;59.39;94506.66;4177111;28;20053;-55
2022/05/25 00:15:46;;;;;;;7.55;6.40;;;;;;;19.92;59.60;94506.06;4175158;28;20048;-56
2022/05/25 00:17:48;;;;;;;6.60;6.00;;;;;;;19.90;59.89;94505.50;4176541;28;20196;-53
2022/05/25 00:19:59;;;;;;;8.93;6.90;;;;;;;19.71;60.36;94504.66;4169769;28;20055;-56
2022/05/25 00:22:01;;;;;;;9.13;6.82;;;;;;;19.42;61.04;94506.13;4176445;28;20826;-56
2022/05/25 00:24:03;;;;;;;13.32;7.13;;;;;;;18.60;63.51;94514.88;4176550;28;20052;-55
2022/05/25 00:26:04;;;;;;;14.57;7.38;;;;;;;18.41;64.66;94513.97;4176422;28;20143;-55
2022/05/25 00:28:13;;;;;;;12.07;7.60;;;;;;;18.51;64.21;94516.16;4176333;28;20115;-53
2022/05/25 00:30:17;;;;;;;7.65;6.80;;;;;;;18.68;63.84;94503.19;4174484;28;20048;-55
2022/05/25 00:32:18;;;;;;;11.77;7.18;;;;;;;18.86;63.15;94502.50;4171003;28;20130;-56
2022/05/25 00:34:20;;;;;;;11.23;7.50;;;;;;;19.00;62.87;94505.88;4164215;28;20061;-56
2022/05/25 00:36:22;;;;;;;9.93;7.25;;;;;;;19.13;62.48;94497.00;4159937;28;20204;-55
2022/05/25 00:38:24;;;;;;;10.98;6.88;;;;;;;19.22;62.17;94501.00;4159815;28;20049;-54
2022/05/25 00:40:35;;;;;;;8.68;7.35;;;;;;;19.28;61.96;94500.13;4160150;28;20183;-53
2022/05/25 00:42:37;;;;;;;11.38;7.28;;;;;;;19.33;61.52;94502.13;4176350;28;20055;-55
2022/05/25 00:44:39;;;;;;;9.60;7.00;;;;;;;19.36;61.44;94499.03;4174328;28;20611;-54
2022/05/25 00:46:41;;;;;;;8.48;6.80;;;;;;;19.37;61.31;94500.66;4176144;28;20130;-56
2022/05/25 00:48:52;;;;;;;10.40;6.57;;;;;;;19.34;61.35;94493.16;4176125;28;20103;-56
2022/05/25 00:51:12;;;;;;;12.13;7.10;;;;;;;19.15;61.63;94500.25;4174550;28;20073;-54
2022/05/25 00:53:13;;;;;;;11.23;7.55;;;;;;;18.76;62.74;94505.59;4176198;28;20049;-53
2022/05/25 00:55:28;;;;;;;10.18;7.00;;;;;;;18.23;64.37;94505.09;4175857;28;20462;-55
2022/05/25 00:57:41;;;;;;;14.48;7.30;;;;;;;18.10;64.95;94504.09;4174611;28;20433;-55
2022/05/25 00:59:48;;;;;;;11.65;7.32;;;;;;;18.19;64.95;94507.34;4172230;28;20199;-58
2022/05/25 01:01:51;;;;;;;10.68;7.05;;;;;;;18.33;64.46;94503.59;4176090;28;20079;-56
2022/05/25 01:03:52;;;;;;;17.85;7.97;;;;;;;18.49;64.07;94506.78;4175862;28;20148;-56
2022/05/25 01:06:12;;;;;;;10.35;7.45;;;;;;;18.63;63.83;94508.34;4175669;28;20336;-53
2022/05/25 01:08:22;;;;;;;11.43;7.80;;;;;;;18.69;63.28;94512.81;4174487;28;20060;-51
2022/05/25 01:10:33;;;;;;;10.57;7.28;;;;;;;18.63;63.66;94513.66;4175765;28;20481;-55
2022/05/25 01:12:43;;;;;;;14.50;7.53;;;;;;;18.63;63.53;94521.59;4175924;28;20053;-55
2022/05/25 01:14:57;;;;;;;12.18;6.95;;;;;;;18.69;63.32;94514.63;4156513;28;20615;-54
2022/05/25 01:17:20;;;;;;;9.38;6.78;;;;;;;18.73;63.23;94524.59;4172523;28;20072;-57
2022/05/25 01:19:54;;;;;;;12.02;7.10;;;;;;;18.81;62.90;94521.72;4175181;28;20136;-54
2022/05/25 01:22:00;;;;;;;8.35;7.40;;;;;;;18.89;62.72;94522.50;4158005;28;20128;-54
2022/05/25 01:24:17;;;;;;;9.75;7.35;;;;;;;18.92;62.51;94522.88;4158056;28;20133;-53
2022/05/25 01:26:56;;;;;;;9.75;7.28;;;;;;;18.96;62.29;94532.03;4161163;28;20053;-50
2022/05/25 01:29:26;;;;;;;8.70;7.45;;;;;;;18.95;62.31;94518.97;4175637;28;20053;-53
2022/05/25 01:31:47;;;;;;;16.30;7.65;;;;;;;18.94;62.24;94527.97;4174737;28;20053;-52
2022/05/25 01:33:52;;;;;;;9.98;7.65;;;;;;;18.91;62.24;94526.56;4158857;28;20532;-55
2022/05/25 01:36:01;;;;;;;13.30;7.50;;;;;;;18.90;62.47;94526.78;4171549;28;20083;-54
2022/05/25 01:38:16;;;;;;;9.88;7.25;;;;;;;18.90;62.27;94529.41;4174246;28;20064;-54
2022/05/25 01:40:23;;;;;;;12.68;7.78;;;;;;;18.90;62.43;94529.41;4175139;28;20424;-54
2022/05/25 01:42:35;;;;;;;12.52;8.20;;;;;;;18.87;62.26;94528.03;4175439;28;20056;-54
2022/05/25 01:44:51;;;;;;;9.65;7.80;;;;;;;18.87;62.45;94530.66;4172757;28;20532;-55
2022/05/25 01:47:01;;;;;;;11.40;7.88;;;;;;;18.88;62.53;94526.97;4174099;28;20061;-54
2022/05/25 01:49:06;;;;;;;10.82;7.65;;;;;;;18.87;62.37;94535.19;4174107;28;20145;-54
2022/05/25 01:51:14;;;;;;;8.85;7.93;;;;;;;18.87;62.16;94535.19;4174268;28;20060;-54
2022/05/25 01:53:18;;;;;;;9.82;7.38;;;;;;;18.86;62.23;94536.19;4174212;28;20056;-54
2022/05/25 01:55:32;;;;;;;9.75;8.13;;;;;;;18.80;62.45;94532.56;4173720;28;20397;-55
2022/05/25 01:57:37;;;;;;;10.85;8.32;;;;;;;18.76;62.60;94531.34;4173678;28;20104;-54
2022/05/25 01:59:38;;;;;;;12.70;8.48;;;;;;;18.75;62.63;94545.59;4172467;28;20057;-55
2022/05/25 02:04:27;;;;;;;12.48;8.98;;;;;;;18.81;62.45;94550.09;4175018;28;20061;-53
2022/05/25 02:06:38;;;;;;;18.98;11.48;;;;;;;18.80;62.36;94551.13;4175310;28;20391;-54
2022/05/25 02:09:11;;;;;;;20.83;11.80;;;;;;;18.77;62.71;94547.03;4175195;28;20540;-53
2022/05/25 02:11:21;;;;;;;21.75;12.10;;;;;;;18.72;62.63;94554.00;4176120;28;20523;-55
2022/05/25 02:13:30;;;;;;;19.48;12.70;;;;;;;18.74;62.59;94554.63;4178005;28;20141;-54
2022/05/25 02:15:47;;;;;;;17.60;12.23;;;;;;;18.70;62.96;94556.06;4176596;28;20195;-57
2022/05/25 02:17:57;;;;;;;21.10;12.93;;;;;;;18.70;62.78;94556.88;4178381;28;20477;-55
2022/05/25 02:20:14;;;;;;;21.85;13.88;;;;;;;18.71;62.83;94550.53;4178041;28;20103;-55
2022/05/25 02:22:19;;;;;;;20.73;13.15;;;;;;;18.70;62.87;94561.38;4177034;28;20133;-54
2022/05/25 02:24:33;;;;;;;25.98;13.55;;;;;;;18.68;62.90;94561.56;4176842;28;20049;-58
2022/05/25 02:26:37;;;;;;;;;;;;;;;18.66;62.93;94568.13;4177499;28;20190;-55
2022/05/25 02:28:46;;;;;;;25.88;13.48;;;;;;;18.62;63.03;94568.53;4176832;28;19924;-52
2022/05/25 02:30:51;;;;;;;27.95;13.93;;;;;;;18.55;63.31;94580.22;4175767;28;20045;-54
2022/05/25 02:33:01;;;;;;;22.00;13.80;;;;;;;18.49;63.47;94575.75;4176971;28;20398;-54
2022/05/25 02:35:03;;;;;;;23.42;13.88;;;;;;;18.43;63.49;94582.69;4172466;28;20057;-53
2022/05/25 02:37:05;;;;;;;22.40;13.90;;;;;;;18.36;63.70;94585.38;4159252;28;20131;-53
2022/05/25 02:39:09;;;;;;;24.40;12.45;;;;;;;18.24;63.73;94584.44;4164144;28;20122;-54
2022/05/25 02:41:15;;;;;;;18.70;12.77;;;;;;;18.17;64.28;94583.63;4182985;28;20045;-50
2022/05/25 02:43:16;;;;;;;22.60;13.68;;;;;;;18.09;64.36;94583.84;4178431;28;20126;-54
2022/05/25 02:45:18;;;;;;;21.88;12.77;;;;;;;18.06;64.69;94584.25;4176864;28;20056;-55
2022/05/25 02:47:21;;;;;;;21.67;11.82;;;;;;;18.03;64.53;94582.84;4169259;28;20053;-54
2022/05/25 02:49:22;;;;;;;24.83;12.35;;;;;;;17.96;64.62;94577.56;4160307;28;20053;-54
2022/05/25 02:51:24;;;;;;;18.55;11.90;;;;;;;17.90;64.87;94583.69;4161838;28;20453;-53
2022/05/25 02:53:26;;;;;;;18.83;11.77;;;;;;;17.94;64.78;94578.78;4161590;28;20049;-53
2022/05/25 02:55:28;;;;;;;22.63;11.98;;;;;;;18.03;65.00;94582.03;4160983;28;20053;-55
2022/05/25 02:57:30;;;;;;;17.70;12.00;;;;;;;18.09;64.57;94587.31;4161369;28;20551;-56
2022/05/25 02:59:32;;;;;;;16.60;11.38;;;;;;;18.16;64.52;94587.31;4160780;28;20053;-54
2022/05/25 03:01:33;;;;;;;25.08;12.60;;;;;;;18.21;64.07;94584.81;4160956;28;20114;-54
2022/05/25 03:03:36;;;;;;;30.42;13.45;;;;;;;18.28;64.07;94590.09;4160776;28;20588;-53
2022/05/25 03:05:39;;;;;;;17.00;12.65;;;;;;;18.32;64.21;94592.13;4160954;28;20057;-54
2022/05/25 03:07:41;;;;;;;18.33;12.30;;;;;;;18.34;63.73;94592.72;4161181;28;20172;-53
2022/05/25 03:09:43;;;;;;;17.20;11.48;;;;;;;18.37;63.69;94597.63;4160564;28;20148;-54
2022/05/25 03:11:45;;;;;;;20.88;11.93;;;;;;;18.29;63.66;94602.34;4161363;28;20120;-56
2022/05/25 03:13:48;;;;;;;18.40;11.75;;;;;;;18.21;64.21;94600.72;4161174;28;20061;-55
2022/05/25 03:15:50;;;;;;;19.98;11.68;;;;;;;18.21;64.28;94606.84;4163424;28;20052;-55
2022/05/25 03:17:52;;;;;;;19.30;12.13;;;;;;;18.27;64.08;94605.22;4177406;28;20053;-53
2022/05/25 03:19:56;;;;;;;18.33;11.68;;;;;;;18.31;63.90;94610.91;4166340;28;20125;-51
2022/05/25 03:21:57;;;;;;;21.42;11.80;;;;;;;18.31;63.87;94610.91;4160481;28;20132;-54
2022/05/25 03:23:59;;;;;;;16.00;10.85;;;;;;;18.32;63.97;94613.34;4160487;28;20115;-53
2022/05/25 03:26:01;;;;;;;16.27;11.23;;;;;;;18.32;63.79;94612.53;4164075;28;20056;-50
2022/05/25 03:28:05;;;;;;;17.38;10.63;;;;;;;18.09;64.49;94619.13;4177318;28;20057;-53
2022/05/25 03:30:08;;;;;;;19.45;12.55;;;;;;;17.98;65.14;94617.94;4176051;28;20351;-54
2022/05/25 03:32:10;;;;;;;16.40;11.65;;;;;;;17.95;64.97;94622.81;4177402;28;20130;-55
2022/05/25 03:34:12;;;;;;;17.45;11.13;;;;;;;17.91;65.20;94627.72;4175721;28;20062;-56
2022/05/25 03:36:14;;;;;;;14.32;11.15;;;;;;;17.87;65.20;94631.78;4168619;28;20041;-54
2022/05/25 03:38:16;;;;;;;15.65;11.43;;;;;;;17.72;65.70;94626.66;4159612;28;20528;-54
2022/05/25 03:40:17;;;;;;;14.60;11.27;;;;;;;17.40;66.78;94633.59;4160195;28;20065;-55
2022/05/25 03:42:19;;;;;;;21.15;12.23;;;;;;;17.35;67.32;94639.50;4176615;28;20051;-54
2022/05/25 03:44:22;;;;;;;20.58;11.63;;;;;;;17.11;68.10;94635.59;4176053;28;20157;-52
2022/05/25 03:46:23;;;;;;;20.25;11.52;;;;;;;17.07;68.58;94638.84;4175928;28;20059;-53
2022/05/25 03:48:25;;;;;;;18.38;11.45;;;;;;;17.24;68.06;94636.66;4177321;28;20076;-53
2022/05/25 03:50:27;;;;;;;16.48;10.85;;;;;;;17.44;67.03;94648.06;4175375;28;20057;-53
2022/05/25 03:52:29;;;;;;;19.65;11.10;;;;;;;17.47;66.81;94652.97;4171467;28;20103;-52
2022/05/25 03:54:31;;;;;;;16.10;11.48;;;;;;;17.55;66.46;94657.25;4168590;28;20056;-55
2022/05/25 03:56:33;;;;;;;18.60;12.95;;;;;;;17.19;67.38;94659.25;4176965;28;20049;-57
2022/05/25 03:58:34;;;;;;;18.02;12.93;;;;;;;16.82;68.94;94665.03;4172531;28;20476;-56
2022/05/25 04:00:36;;;;;;;17.67;14.93;;;;;;;16.82;68.85;94657.09;4175501;28;20049;-56
2022/05/25 04:02:38;;;;;;;21.55;14.07;;;;;;;16.72;69.77;94658.25;4176676;28;20485;-55
2022/05/25 04:04:40;;;;;;;22.52;14.68;;;;;;;16.84;69.64;94665.66;4176800;28;20133;-54
2022/05/25 04:06:41;;;;;;;30.33;20.48;;;;;;;16.96;69.04;94653.50;4172820;28;20427;-55
2022/05/25 04:08:43;;;;;;;25.92;20.30;;;;;;;17.18;68.62;94662.91;4167613;28;20079;-54
2022/05/25 04:10:45;;;;;;;26.17;19.80;;;;;;;17.42;67.73;94670.47;4176542;28;20103;-54
2022/05/25 04:12:47;;;;;;;22.30;17.55;;;;;;;17.66;66.87;94663.75;4176655;28;20048;-55
2022/05/25 04:14:49;;;;;;;18.95;13.10;;;;;;;17.88;66.31;94665.22;4175365;28;20517;-54
2022/05/25 04:16:50;;;;;;;22.10;13.93;;;;;;;18.06;65.28;94661.13;4176699;28;20571;-53
2022/05/25 04:18:52;;;;;;;18.70;13.27;;;;;;;18.15;64.88;94659.88;4176493;28;20465;-53
2022/05/25 04:20:54;;;;;;;18.85;12.48;;;;;;;18.24;64.48;94656.00;4176584;28;20057;-54
2022/05/25 04:22:56;;;;;;;16.67;11.82;;;;;;;18.37;64.32;94655.16;4176468;28;20071;-54
2022/05/25 04:24:59;;;;;;;14.00;10.95;;;;;;;18.50;63.67;94651.63;4176374;28;20099;-56
2022/05/25 04:27:01;;;;;;;18.92;11.05;;;;;;;18.62;63.59;94652.63;4176616;28;20081;-54
2022/05/25 04:29:03;;;;;;;13.60;10.95;;;;;;;18.70;63.27;94657.69;4176386;28;20087;-53
2022/05/25 04:31:04;;;;;;;16.55;10.88;;;;;;;18.74;63.00;94658.91;4174948;28;20061;-52
2022/05/25 04:33:06;;;;;;;11.52;10.23;;;;;;;18.78;63.33;94664.66;4176653;28;20079;-54
2022/05/25 04:35:10;;;;;;;14.05;11.02;;;;;;;18.86;63.11;94661.72;4175230;28;20144;-57
2022/05/25 04:39:31;;;;;;;11.63;9.65;;;;;;;18.95;62.78;94670.25;4171467;28;20068;-53
2022/05/25 04:41:36;;;;;;;14.52;11.07;;;;;;;19.02;62.42;94674.53;4171287;28;20037;-55
2022/05/25 04:43:38;;;;;;;11.75;10.18;;;;;;;19.01;62.32;94674.72;4159766;28;20421;-53
2022/05/25 04:45:41;;;;;;;14.27;10.30;;;;;;;18.97;62.56;94665.56;4158253;28;20063;-54
2022/05/25 04:47:43;;;;;;;13.70;10.57;;;;;;;18.93;62.89;94670.50;4171338;28;20111;-53
2022/05/25 04:49:48;;;;;;;12.20;10.65;;;;;;;19.00;62.75;94665.16;4175898;28;20107;-57
2022/05/25 04:51:51;;;;;;;16.25;9.98;;;;;;;19.05;62.57;94670.63;4176308;28;20122;-50
2022/05/25 04:53:52;;;;;;;12.80;10.60;;;;;;;19.12;62.68;94666.13;4176355;28;20071;-53
2022/05/25 04:58:20;;;;;;;13.90;10.02;;;;;;;19.36;61.87;94663.72;4176054;28;20114;-52
2022/05/25 05:00:22;;;;;;;12.15;10.35;;;;;;;19.43;61.63;94656.53;4174126;28;20057;-54
2022/05/25 05:02:25;;;;;;;16.05;11.32;;;;;;;19.48;61.21;94663.84;4175934;28;20142;-55
2022/05/25 05:04:27;;;;;;;17.98;10.70;;;;;;;19.27;61.97;94662.34;4175584;28;20126;-52
2022/05/25 05:06:29;;;;;;;13.95;11.20;;;;;;;18.89;63.10;94671.13;4175850;28;20065;-50
2022/05/25 05:08:30;;;;;;;17.20;10.07;;;;;;;18.78;63.95;94670.75;4175825;28;20169;-55
2022/05/25 05:10:32;;;;;;;17.95;11.07;;;;;;;18.79;64.04;94660.97;4175834;28;20630;-55
2022/05/25 05:12:34;;;;;;;16.08;11.18;;;;;;;18.73;63.95;94667.06;4176353;28;20103;-56
2022/05/25 05:14:37;;;;;;;12.57;10.15;;;;;;;18.25;65.64;94664.78;4174694;28;20045;-54
2022/05/25 05:16:38;;;;;;;21.17;11.38;;;;;;;18.33;65.58;94670.66;4176100;28;20396;-56
2022/05/25 05:18:42;;;;;;;12.73;10.73;;;;;;;18.34;65.81;94674.13;4174927;28;20123;-54
2022/05/25 05:20:43;;;;;;;13.70;11.27;;;;;;;18.29;66.23;94681.91;4159438;28;20068;-53
2022/05/25 05:22:45;;;;;;;19.45;10.93;;;;;;;18.42;65.71;94677.38;4159488;28;20045;-54
2022/05/25 05:24:47;;;;;;;13.88;10.63;;;;;;;18.58;65.61;94678.78;4158740;28;20429;-56
2022/05/25 05:26:48;;;;;;;14.00;10.38;;;;;;;18.73;65.36;94683.81;4169200;28;20110;-55
2022/05/25 05:28:53;;;;;;;14.15;11.07;;;;;;;18.88;64.84;94686.22;4176004;28;20076;-56
2022/05/25 05:30:56;;;;;;;14.13;11.18;;;;;;;18.98;64.06;94688.44;4174041;28;20146;-54
2022/05/25 05:32:58;;;;;;;14.40;11.13;;;;;;;18.81;64.70;94686.25;4175594;28;20087;-56
2022/05/25 05:35:00;;;;;;;15.10;11.30;;;;;;;18.77;64.51;94690.31;4175998;28;20048;-51
2022/05/25 05:37:08;;;;;;;22.10;11.00;;;;;;;18.91;64.60;94691.13;4176211;28;20056;-55
2022/05/25 05:39:17;;;;;;;17.10;12.02;;;;;;;19.09;64.17;94693.09;4162161;28;20129;-54
2022/05/25 05:41:21;;;;;;;13.90;12.10;;;;;;;19.18;63.44;94701.63;4174338;28;20409;-50
2022/05/25 05:43:23;;;;;;;18.52;11.90;;;;;;;19.20;63.23;94705.69;4176048;28;20045;-54
2022/05/25 05:45:28;;;;;;;14.75;11.35;;;;;;;19.22;63.26;94702.81;4173614;28;20686;-58
2022/05/25 05:47:36;;;;;;;17.55;11.27;;;;;;;19.16;63.72;94706.31;4177836;28;20103;-55
2022/05/25 05:49:39;;;;;;;16.23;11.82;;;;;;;19.08;63.95;94711.88;4177199;28;20064;-52
2022/05/25 05:51:41;;;;;;;20.20;12.80;;;;;;;19.10;63.91;94715.97;4179285;28;20053;-55
2022/05/25 05:53:44;;;;;;;18.33;12.23;;;;;;;19.01;63.96;94707.44;4177756;28;20214;-58
2022/05/25 05:55:46;;;;;;;20.20;12.50;;;;;;;18.97;64.23;94702.72;4177422;28;20082;-54
2022/05/25 05:57:48;;;;;;;15.23;12.13;;;;;;;19.23;63.71;94709.78;4171440;28;20518;-53
2022/05/25 05:59:50;;;;;;;17.90;12.80;;;;;;;19.46;62.93;94709.22;4159388;28;20057;-54
2022/05/25 06:01:53;;;;;;;14.13;11.85;;;;;;;19.70;62.21;94710.31;4169500;28;20048;-55
2022/05/25 06:03:54;;;;;;;15.50;12.40;;;;;;;19.89;61.57;94711.19;4178462;28;20440;-54
2022/05/25 06:05:56;;;;;;;16.35;12.20;;;;;;;20.00;60.70;94705.22;4178591;28;20049;-54
2022/05/25 06:08:09;;;;;;;15.77;11.63;;;;;;;19.71;61.37;94708.50;4177281;28;20114;-54
2022/05/25 06:10:11;;;;;;;13.07;11.32;;;;;;;19.65;61.71;94715.44;4177263;28;20123;-54
2022/05/25 06:12:17;;;;;;;18.15;12.13;;;;;;;19.60;61.83;94710.78;4175809;28;20045;-58
2022/05/25 06:14:19;;;;;;;15.57;11.50;;;;;;;19.64;61.97;94709.31;4178055;28;20061;-55
2022/05/25 06:21:02;;;;;;;15.25;11.75;;;;;;;19.83;61.97;94715.56;4178449;28;20152;-56
2022/05/25 06:23:04;;;;;;;15.75;12.25;;;;;;;19.97;61.10;94715.44;4178233;28;20053;-53
2022/05/25 06:25:07;;;;;;;18.83;12.38;;;;;;;19.87;61.07;94720.44;4178074;28;20064;-52
2022/05/25 06:27:11;;;;;;;16.13;11.90;;;;;;;19.90;61.35;94712.84;4178183;28;20508;-56
2022/05/25 06:29:16;;;;;;;17.50;12.57;;;;;;;19.93;61.06;94720.38;4178718;28;20512;-54
2022/05/25 06:31:19;;;;;;;18.10;12.57;;;;;;;19.98;61.15;94720.56;4176556;28;20140;-54
2022/05/25 06:33:21;;;;;;;15.57;12.18;;;;;;;19.94;60.88;94721.19;4178699;28;20421;-58
2022/05/25 06:35:23;;;;;;;17.90;12.57;;;;;;;20.07;61.41;94714.94;4176748;28;20152;-55
2022/05/25 06:37:25;;;;;;;16.85;12.35;;;;;;;20.26;60.89;94708.63;4178224;28;20053;-53
2022/05/25 06:39:28;;;;;;;26.42;12.68;;;;;;;20.53;60.29;94713.72;4170921;28;20049;-54
2022/05/25 06:41:29;;;;;;;17.90;11.90;;;;;;;20.81;59.77;94713.25;4172344;28;20053;-54
2022/05/25 06:43:32;;;;;;;17.80;12.30;;;;;;;21.06;59.40;94715.81;4178457;28;20064;-56
2022/05/25 06:45:34;;;;;;;16.80;11.43;;;;;;;21.25;58.37;94712.09;4175199;28;20053;-54
2022/05/25 06:47:37;;;;;;;14.07;10.82;;;;;;;21.40;57.99;94716.19;4167652;28;20119;-54
2022/05/25 06:49:38;;;;;;;15.73;10.68;;;;;;;21.54;57.64;94723.00;4161214;28;20525;-53
2022/05/25 06:51:40;;;;;;;17.88;11.68;;;;;;;21.52;56.89;94733.06;4161708;28;20418;-54
2022/05/25 06:53:42;;;;;;;18.27;11.95;;;;;;;21.25;57.43;94725.41;4161580;28;20465;-53
2022/05/25 06:55:43;;;;;;;19.05;10.63;;;;;;;21.28;58.05;94722.28;4160937;28;20159;-49
2022/05/25 06:57:45;;;;;;;20.08;11.93;;;;;;;21.45;58.20;94719.03;4160611;28;20111;-52
2022/05/25 06:59:47;;;;;;;17.08;12.07;;;;;;;21.19;57.61;94725.50;4160162;28;20603;-50
2022/05/25 07:01:49;;;;;;;22.95;12.75;;;;;;;21.07;58.13;94730.75;4168011;28;20508;-48
2022/05/25 07:03:54;;;;;;;16.70;12.05;;;;;;;21.08;58.55;94732.41;4177786;28;20084;-52
2022/05/25 07:05:57;;;;;;;13.63;12.20;;;;;;;21.19;57.98;94738.81;4177814;28;20052;-49
2022/05/25 07:07:59;;;;;;;18.83;14.02;;;;;;;21.22;58.21;94723.19;4177683;28;20111;-55
2022/05/25 07:10:01;;;;;;;14.27;12.63;;;;;;;21.42;57.75;94730.13;4177251;28;20057;-53
2022/05/25 07:12:03;;;;;;;20.45;12.88;;;;;;;21.46;57.14;94736.63;4177746;28;20060;-52
2022/05/25 07:14:05;;;;;;;18.38;12.32;;;;;;;21.61;57.00;94734.38;4177738;28;20469;-53
2022/05/25 07:16:10;;;;;;;20.00;11.90;;;;;;;21.82;56.52;94738.38;4175934;28;20474;-55
2022/05/25 07:18:12;;;;;;;21.02;11.50;;;;;;;22.05;55.91;94734.97;4177437;28;20064;-52
2022/05/25 07:20:13;;;;;;;16.05;11.45;;;;;;;22.03;55.43;94729.06;4163690;28;20173;-54
2022/05/25 07:22:15;;;;;;;15.93;11.05;;;;;;;22.08;55.23;94731.81;4161114;28;20069;-51
2022/05/25 07:24:20;;;;;;;14.43;11.32;;;;;;;22.28;55.55;94736.06;4161034;28;20210;-53
2022/05/25 07:26:23;;;;;;;14.02;10.48;;;;;;;22.35;54.52;94741.28;4166734;28;20048;-53
2022/05/25 07:28:25;;;;;;;18.25;12.45;;;;;;;22.32;54.86;94739.88;4176049;28;20464;-52
2022/05/25 07:30:28;;;;;;;19.17;11.45;;;;;;;22.23;54.71;94744.75;4175252;28;20061;-53
2022/05/25 07:32:29;;;;;;;15.23;10.50;;;;;;;22.26;55.08;94743.47;4177409;28;20045;-47
2022/05/25 07:34:34;;;;;;;16.98;11.38;;;;;;;22.47;55.39;94732.22;4177035;28;20355;-53
2022/05/25 07:36:36;;;;;;;15.00;11.63;;;;;;;22.73;54.58;94737.34;4177429;28;20056;-54
2022/05/25 07:38:42;;;;;;;16.48;11.50;;;;;;;22.94;52.97;94726.03;4176157;28;20099;-56
2022/05/25 07:40:44;;;;;;;15.77;11.00;;;;;;;23.06;52.72;94720.72;4167941;28;20099;-52
2022/05/25 07:42:49;;;;;;;17.15;11.30;;;;;;;23.18;52.89;94726.03;4162930;28;20049;-54
2022/05/25 07:44:57;;;;;;;18.17;11.40;;;;;;;23.31;52.63;94723.06;4159188;28;20144;-56
2022/05/25 07:46:59;;;;;;;17.30;11.10;;;;;;;23.21;52.41;94715.69;4160770;28;20525;-53
2022/05/25 07:49:02;;;;;;;22.17;11.67;;;;;;;23.02;53.00;94714.22;4160758;28;20485;-53
2022/05/25 07:51:04;;;;;;;16.83;11.52;;;;;;;23.06;52.60;94716.19;4160404;28;20129;-50
2022/05/25 07:53:55;;;;;;;15.90;11.03;;;;;;;23.22;52.96;94709.28;4160432;28;20130;-52
2022/05/25 07:55:28;;;;;;;20.73;11.38;;;;;;;23.43;53.04;94710.47;4160035;28;20834;-53
2022/05/25 07:57:31;;;;;;;17.85;10.50;;;;;;;23.61;52.58;94719.34;4160381;28;20064;-53
2022/05/25 07:59:34;;;;;;;16.38;10.35;;;;;;;23.79;52.00;94718.34;4159274;28;20053;-53
2022/05/25 08:06:19;;;;;;;20.15;10.70;;;;;;;23.30;53.12;94721.47;4177142;28;20796;-53
2022/05/25 08:08:23;;;;;;;15.75;10.63;;;;;;;23.42;52.35;94722.19;4176405;28;20064;-55
2022/05/25 08:10:32;;;;;;;14.05;9.65;;;;;;;23.61;52.25;94720.16;4175150;28;20138;-55
2022/05/25 08:12:36;;;;;;;13.93;9.82;;;;;;;23.73;51.75;94720.09;4176478;28;20048;-50
2022/05/25 08:14:39;;;;;;;16.40;8.90;;;;;;;23.90;51.83;94714.81;4174891;28;20057;-52
2022/05/25 08:16:41;;;;;;;12.15;8.57;;;;;;;24.09;51.22;94713.53;4176535;28;20072;-54
2022/05/25 08:18:43;;;;;;;15.07;9.15;;;;;;;24.28;50.16;94710.59;4176368;28;20053;-53
2022/05/25 08:20:45;;;;;;;14.30;8.68;;;;;;;24.46;49.90;94707.66;4176297;28;20049;-54
2022/05/25 08:22:48;;;;;;;14.20;8.80;;;;;;;24.67;49.54;94697.25;4176183;28;20099;-53
2022/05/25 08:24:50;;;;;;;10.48;8.27;;;;;;;24.87;49.14;94691.38;4176052;28;20060;-55
2022/05/25 08:26:52;;;;;;;13.80;8.68;;;;;;;25.03;48.89;94698.53;4174545;28;20484;-54
2022/05/25 08:28:53;;;;;;;9.88;7.57;;;;;;;25.10;48.64;94706.38;4176109;28;20486;-53
2022/05/25 08:30:55;;;;;;;10.82;7.63;;;;;;;25.21;48.40;94716.22;4174336;28;20105;-53
2022/05/25 08:32:57;;;;;;;12.95;8.45;;;;;;;25.20;48.41;94729.88;4175988;28;20045;-56
2022/05/25 08:34:59;;;;;;;12.05;8.63;;;;;;;24.88;48.34;94725.16;4176226;28;20084;-54
2022/05/25 08:37:01;;;;;;;17.48;8.68;;;;;;;24.96;48.83;94730.09;4175968;28;20048;-57
2022/05/25 08:39:03;;;;;;;13.38;9.13;;;;;;;25.11;48.24;94716.88;4176323;28;20059;-53
2022/05/25 08:41:05;;;;;;;16.95;9.52;;;;;;;25.25;47.99;94725.38;4173089;28;20126;-54
2022/05/25 08:43:18;;;;;;;16.52;9.73;;;;;;;25.38;47.64;94726.06;4164781;28;20111;-55
2022/05/25 08:45:22;;;;;;;17.20;9.38;;;;;;;25.13;48.21;94727.34;4156903;28;20060;-55
2022/05/25 08:47:24;;;;;;;16.27;8.65;;;;;;;24.99;48.40;94726.88;4159325;28;20061;-54
2022/05/25 08:49:30;;;;;;;15.27;9.65;;;;;;;24.83;48.96;94725.09;4159521;28;20652;-55
2022/05/25 08:51:33;;;;;;;18.60;9.60;;;;;;;24.53;49.57;94734.31;4159179;28;20057;-59
2022/05/25 08:53:35;;;;;;;15.47;9.07;;;;;;;24.58;48.99;94736.25;4157592;28;20471;-56
2022/05/25 08:55:56;;;;;;;21.20;9.00;;;;;;;24.78;48.51;94736.53;4159012;28;20536;-54
2022/05/25 08:57:58;;;;;;;13.77;9.55;;;;;;;24.98;48.32;94732.53;4159228;28;20596;-58
2022/05/25 09:00:06;;;;;;;17.92;9.68;;;;;;;24.88;48.57;94725.16;4156651;28;20053;-54
2022/05/25 09:02:18;;;;;;;12.48;9.25;;;;;;;24.91;48.43;94724.66;4169056;28;20057;-56
2022/05/25 09:04:42;;;;;;;23.02;9.38;;;;;;;24.93;48.39;94730.59;4175980;28;20065;-53
2022/05/25 09:06:50;;;;;;;17.83;9.15;;;;;;;24.92;48.15;94719.03;4174583;28;20106;-56
2022/05/25 09:09:09;;;;;;;19.45;9.55;;;;;;;24.93;48.63;94718.00;4175854;28;20053;-56
2022/05/25 09:11:15;;;;;;;15.15;8.80;;;;;;;25.18;48.70;94719.34;4173840;28;20052;-57
2022/05/25 09:13:51;;;;;;;15.52;8.07;;;;;;;25.41;47.83;94718.31;4175968;28;20107;-56
2022/05/25 09:18:20;;;;;;;15.73;8.25;;;;;;;25.43;47.03;94736.84;4174902;28;20107;-55
2022/05/25 09:20:25;;;;;;;13.45;9.10;;;;;;;25.39;46.94;94730.38;4159951;28;20061;-55
2022/05/25 09:22:28;;;;;;;12.02;9.02;;;;;;;25.54;46.79;94735.91;4157892;28;20509;-59
2022/05/25 09:24:31;;;;;;;11.52;8.52;;;;;;;25.73;46.82;94731.81;4157603;28;20379;-58
2022/05/25 09:26:33;;;;;;;12.18;8.30;;;;;;;25.93;47.00;94738.47;4166663;28;20122;-55
2022/05/25 09:28:38;;;;;;;12.43;7.60;;;;;;;26.16;46.74;94737.34;4174353;28;20064;-54
2022/05/25 09:30:42;;;;;;;12.43;8.00;;;;;;;26.34;46.00;94736.13;4172648;28;20510;-53
2022/05/25 09:32:59;;;;;;;14.85;9.63;;;;;;;26.48;45.51;94731.94;4171208;28;20128;-53
2022/05/25 09:35:06;;;;;;;15.75;9.85;;;;;;;26.48;44.73;94731.13;4166367;28;20160;-53
2022/05/25 09:37:16;;;;;;;12.98;8.70;;;;;;;26.22;45.85;94733.63;4157736;28;20056;-54
2022/05/25 09:39:30;;;;;;;16.58;9.13;;;;;;;26.24;45.55;94725.28;4157344;28;20446;-56
2022/05/25 09:41:33;;;;;;;17.17;9.45;;;;;;;25.85;46.07;94733.53;4147660;28;20085;-57
2022/05/25 09:43:35;;;;;;;20.38;9.40;;;;;;;25.83;46.19;94731.09;4166020;28;20042;-54
2022/05/25 09:45:40;;;;;;;13.93;8.88;;;;;;;26.00;46.28;94722.94;4157904;28;20407;-53
2022/05/25 09:47:44;;;;;;;13.10;8.88;;;;;;;26.22;46.12;94727.44;4159344;28;20103;-56
2022/05/25 09:49:48;;;;;;;21.45;9.13;;;;;;;26.40;45.35;94720.88;4159276;28;20053;-59
2022/05/25 09:51:51;;;;;;;14.68;7.90;;;;;;;26.57;44.90;94718.88;4158742;28;20605;-56
2022/05/25 09:54:02;;;;;;;16.40;8.65;;;;;;;26.73;44.34;94706.31;4163197;28;20161;-56
2022/05/25 09:56:09;;;;;;;20.30;9.60;;;;;;;26.84;43.58;94699.13;4157105;28;20135;-57
2022/05/25 09:58:21;;;;;;;13.20;8.32;;;;;;;26.91;43.82;94692.47;4157499;28;20257;-56